Wooster, Ohio
Current Conditions -  °F | °C
As of 6:56 AM on Thursday 29 Jan 2015 (Local Time) from KBJJ Reporting Station
Overcast Overcast  
Wind Chill: 17°   Ceiling: 7000
Heat Index: 28°   Visibility: 10mi
Dew Point: 17°   Wind: 15mph
Humidity: 63%   Direction: 170°S
Pressure: 29.94"   Gusts: NA
Location:  40.81°N, 81.93°W
Report Text: KBJJ 291156Z AUTO 17013KT 10SM BKN070 OVC085 M02/M08 A2994 RMK AO2 SLP157 T10221083 11022 21056 56039 TSNO
Loading
Personal Weather Stations






























Interactive Weather Map New forecast layout! Learn more

10-Day Weather Forecast

Advertisements
Track Severe Weather on mobile